sensor_id;sensor_type;location;lat;lon;timestamp;P1;durP1;ratioP1;P2;durP2;ratioP2
8694;SDS011;65580;49.446;6.854;2023-06-01T00:00:37;6.05;;;3.13;;
8694;SDS011;65580;49.446;6.854;2023-06-01T00:04:41;7.38;;;3.42;;
8694;SDS011;65580;49.446;6.854;2023-06-01T00:08:45;7.82;;;2.90;;
8694;SDS011;65580;49.446;6.854;2023-06-01T00:12:48;6.10;;;3.22;;
8694;SDS011;65580;49.446;6.854;2023-06-01T00:16:51;5.55;;;2.63;;
8694;SDS011;65580;49.446;6.854;2023-06-01T00:20:54;5.60;;;2.60;;
8694;SDS011;65580;49.446;6.854;2023-06-01T00:24:59;8.43;;;3.47;;
8694;SDS011;65580;49.446;6.854;2023-06-01T00:29:01;7.45;;;3.03;;
8694;SDS011;65580;49.446;6.854;2023-06-01T00:33:04;6.88;;;3.10;;
8694;SDS011;65580;49.446;6.854;2023-06-01T00:37:08;6.10;;;2.70;;
8694;SDS011;65580;49.446;6.854;2023-06-01T00:41:12;5.90;;;2.88;;
8694;SDS011;65580;49.446;6.854;2023-06-01T00:45:15;4.22;;;2.53;;
8694;SDS011;65580;49.446;6.854;2023-06-01T00:49:18;13.25;;;2.85;;
8694;SDS011;65580;49.446;6.854;2023-06-01T00:53:21;5.95;;;3.35;;
8694;SDS011;65580;49.446;6.854;2023-06-01T00:57:26;5.38;;;2.70;;
8694;SDS011;65580;49.446;6.854;2023-06-01T01:01:29;9.43;;;3.38;;
8694;SDS011;65580;49.446;6.854;2023-06-01T01:05:33;5.75;;;3.08;;
8694;SDS011;65580;49.446;6.854;2023-06-01T01:09:38;5.75;;;2.90;;
8694;SDS011;65580;49.446;6.854;2023-06-01T01:13:45;6.57;;;2.67;;
8694;SDS011;65580;49.446;6.854;2023-06-01T01:17:51;4.35;;;2.63;;
8694;SDS011;65580;49.446;6.854;2023-06-01T01:22:02;5.88;;;2.60;;
8694;SDS011;65580;49.446;6.854;2023-06-01T01:26:24;5.55;;;2.80;;
8694;SDS011;65580;49.446;6.854;2023-06-01T01:30:29;4.45;;;2.50;;
8694;SDS011;65580;49.446;6.854;2023-06-01T01:34:32;6.53;;;2.65;;
8694;SDS011;65580;49.446;6.854;2023-06-01T01:38:36;6.60;;;3.20;;
8694;SDS011;65580;49.446;6.854;2023-06-01T01:42:39;8.90;;;3.20;;
8694;SDS011;65580;49.446;6.854;2023-06-01T01:46:47;4.95;;;2.58;;
8694;SDS011;65580;49.446;6.854;2023-06-01T01:50:56;7.30;;;2.85;;
8694;SDS011;65580;49.446;6.854;2023-06-01T01:55:01;7.40;;;3.00;;
8694;SDS011;65580;49.446;6.854;2023-06-01T01:59:05;4.57;;;2.58;;
8694;SDS011;65580;49.446;6.854;2023-06-01T02:03:13;3.38;;;2.20;;
8694;SDS011;65580;49.446;6.854;2023-06-01T02:07:17;7.10;;;3.40;;
8694;SDS011;65580;49.446;6.854;2023-06-01T02:11:20;7.13;;;2.63;;
8694;SDS011;65580;49.446;6.854;2023-06-01T02:15:23;6.10;;;2.75;;
8694;SDS011;65580;49.446;6.854;2023-06-01T02:19:28;3.95;;;2.35;;
8694;SDS011;65580;49.446;6.854;2023-06-01T02:23:31;7.53;;;2.40;;
8694;SDS011;65580;49.446;6.854;2023-06-01T02:27:34;7.95;;;2.65;;
8694;SDS011;65580;49.446;6.854;2023-06-01T02:31:37;5.47;;;2.42;;
8694;SDS011;65580;49.446;6.854;2023-06-01T02:35:41;4.35;;;2.42;;
8694;SDS011;65580;49.446;6.854;2023-06-01T02:39:44;4.38;;;2.53;;
8694;SDS011;65580;49.446;6.854;2023-06-01T02:43:48;6.20;;;2.63;;
8694;SDS011;65580;49.446;6.854;2023-06-01T02:47:51;10.00;;;2.50;;
8694;SDS011;65580;49.446;6.854;2023-06-01T02:51:56;8.20;;;2.50;;
8694;SDS011;65580;49.446;6.854;2023-06-01T02:55:59;5.05;;;2.80;;
8694;SDS011;65580;49.446;6.854;2023-06-01T03:00:02;10.50;;;2.90;;
8694;SDS011;65580;49.446;6.854;2023-06-01T03:04:06;9.00;;;3.55;;
8694;SDS011;65580;49.446;6.854;2023-06-01T03:08:11;6.28;;;3.10;;
8694;SDS011;65580;49.446;6.854;2023-06-01T03:12:14;6.40;;;3.30;;
8694;SDS011;65580;49.446;6.854;2023-06-01T03:16:17;5.82;;;3.03;;
8694;SDS011;65580;49.446;6.854;2023-06-01T03:20:19;3.80;;;2.40;;
8694;SDS011;65580;49.446;6.854;2023-06-01T03:24:25;7.95;;;3.40;;
8694;SDS011;65580;49.446;6.854;2023-06-01T03:28:30;7.13;;;3.10;;
8694;SDS011;65580;49.446;6.854;2023-06-01T03:32:33;5.97;;;2.88;;
8694;SDS011;65580;49.446;6.854;2023-06-01T03:36:36;5.15;;;3.17;;
8694;SDS011;65580;49.446;6.854;2023-06-01T03:40:40;9.55;;;5.45;;
8694;SDS011;65580;49.446;6.854;2023-06-01T03:44:43;8.25;;;3.90;;
8694;SDS011;65580;49.446;6.854;2023-06-01T03:48:46;6.57;;;3.25;;
8694;SDS011;65580;49.446;6.854;2023-06-01T03:52:49;5.25;;;3.10;;
8694;SDS011;65580;49.446;6.854;2023-06-01T03:56:53;6.22;;;3.10;;
8694;SDS011;65580;49.446;6.854;2023-06-01T04:00:56;6.82;;;3.58;;
8694;SDS011;65580;49.446;6.854;2023-06-01T04:05:00;11.35;;;3.92;;
8694;SDS011;65580;49.446;6.854;2023-06-01T04:09:03;5.40;;;2.67;;
8694;SDS011;65580;49.446;6.854;2023-06-01T04:13:09;9.38;;;4.53;;
8694;SDS011;65580;49.446;6.854;2023-06-01T04:17:12;9.05;;;3.10;;
8694;SDS011;65580;49.446;6.854;2023-06-01T04:21:15;9.00;;;3.67;;
8694;SDS011;65580;49.446;6.854;2023-06-01T04:25:19;8.60;;;3.70;;
8694;SDS011;65580;49.446;6.854;2023-06-01T04:29:23;9.70;;;3.72;;
8694;SDS011;65580;49.446;6.854;2023-06-01T04:33:26;8.27;;;4.40;;
8694;SDS011;65580;49.446;6.854;2023-06-01T04:37:29;8.40;;;3.72;;
8694;SDS011;65580;49.446;6.854;2023-06-01T04:41:33;8.05;;;4.60;;
8694;SDS011;65580;49.446;6.854;2023-06-01T04:45:39;8.77;;;3.78;;
8694;SDS011;65580;49.446;6.854;2023-06-01T04:49:42;7.78;;;4.32;;
8694;SDS011;65580;49.446;6.854;2023-06-01T04:53:46;9.23;;;4.28;;
8694;SDS011;65580;49.446;6.854;2023-06-01T04:57:52;10.80;;;4.82;;
8694;SDS011;65580;49.446;6.854;2023-06-01T05:01:56;11.00;;;3.70;;
8694;SDS011;65580;49.446;6.854;2023-06-01T05:06:00;10.25;;;4.50;;
8694;SDS011;65580;49.446;6.854;2023-06-01T05:14:07;9.63;;;3.90;;
8694;SDS011;65580;49.446;6.854;2023-06-01T05:18:11;10.23;;;4.57;;
8694;SDS011;65580;49.446;6.854;2023-06-01T05:22:15;11.02;;;4.35;;
8694;SDS011;65580;49.446;6.854;2023-06-01T05:26:18;10.05;;;4.75;;
8694;SDS011;65580;49.446;6.854;2023-06-01T05:30:23;13.43;;;4.50;;
8694;SDS011;65580;49.446;6.854;2023-06-01T05:34:28;16.27;;;4.30;;
8694;SDS011;65580;49.446;6.854;2023-06-01T05:38:31;9.13;;;3.55;;
8694;SDS011;65580;49.446;6.854;2023-06-01T05:42:34;10.32;;;4.50;;
8694;SDS011;65580;49.446;6.854;2023-06-01T05:46:37;14.82;;;3.90;;
8694;SDS011;65580;49.446;6.854;2023-06-01T05:50:44;12.35;;;4.13;;
8694;SDS011;65580;49.446;6.854;2023-06-01T05:54:47;14.15;;;3.80;;
8694;SDS011;65580;49.446;6.854;2023-06-01T05:58:52;10.23;;;3.10;;
8694;SDS011;65580;49.446;6.854;2023-06-01T06:02:55;8.48;;;3.30;;
8694;SDS011;65580;49.446;6.854;2023-06-01T06:06:59;10.85;;;3.20;;
8694;SDS011;65580;49.446;6.854;2023-06-01T06:11:02;12.27;;;3.25;;
8694;SDS011;65580;49.446;6.854;2023-06-01T06:15:06;11.18;;;3.80;;
8694;SDS011;65580;49.446;6.854;2023-06-01T06:19:09;9.35;;;3.42;;
8694;SDS011;65580;49.446;6.854;2023-06-01T06:23:14;17.77;;;3.05;;
8694;SDS011;65580;49.446;6.854;2023-06-01T06:27:16;23.85;;;3.35;;
8694;SDS011;65580;49.446;6.854;2023-06-01T06:31:19;13.98;;;3.50;;
8694;SDS011;65580;49.446;6.854;2023-06-01T06:35:22;22.55;;;3.50;;
8694;SDS011;65580;49.446;6.854;2023-06-01T06:39:26;12.98;;;2.55;;
8694;SDS011;65580;49.446;6.854;2023-06-01T06:43:29;35.28;;;3.35;;
8694;SDS011;65580;49.446;6.854;2023-06-01T06:47:32;22.63;;;2.83;;
8694;SDS011;65580;49.446;6.854;2023-06-01T06:51:36;18.58;;;2.63;;
8694;SDS011;65580;49.446;6.854;2023-06-01T06:55:41;9.10;;;2.13;;
8694;SDS011;65580;49.446;6.854;2023-06-01T06:59:45;9.85;;;2.20;;
8694;SDS011;65580;49.446;6.854;2023-06-01T07:03:48;9.35;;;1.92;;
8694;SDS011;65580;49.446;6.854;2023-06-01T07:07:51;5.88;;;1.75;;
8694;SDS011;65580;49.446;6.854;2023-06-01T07:11:59;7.10;;;2.00;;
8694;SDS011;65580;49.446;6.854;2023-06-01T07:16:02;4.65;;;1.67;;
8694;SDS011;65580;49.446;6.854;2023-06-01T07:20:06;5.75;;;1.70;;
8694;SDS011;65580;49.446;6.854;2023-06-01T07:24:12;4.95;;;1.65;;
8694;SDS011;65580;49.446;6.854;2023-06-01T07:28:17;4.90;;;1.60;;
8694;SDS011;65580;49.446;6.854;2023-06-01T07:32:20;6.25;;;2.05;;
8694;SDS011;65580;49.446;6.854;2023-06-01T07:36:23;6.93;;;1.88;;
8694;SDS011;65580;49.446;6.854;2023-06-01T07:40:27;3.65;;;1.60;;
8694;SDS011;65580;49.446;6.854;2023-06-01T07:44:32;6.30;;;1.60;;
8694;SDS011;65580;49.446;6.854;2023-06-01T07:48:34;6.72;;;1.70;;
8694;SDS011;65580;49.446;6.854;2023-06-01T07:52:40;5.82;;;2.10;;
8694;SDS011;65580;49.446;6.854;2023-06-01T07:56:43;6.63;;;1.95;;
8694;SDS011;65580;49.446;6.854;2023-06-01T08:00:49;3.35;;;1.90;;
8694;SDS011;65580;49.446;6.854;2023-06-01T08:04:53;3.88;;;1.80;;
8694;SDS011;65580;49.446;6.854;2023-06-01T08:08:58;5.57;;;1.77;;
8694;SDS011;65580;49.446;6.854;2023-06-01T08:13:01;5.22;;;1.83;;
8694;SDS011;65580;49.446;6.854;2023-06-01T08:17:07;4.35;;;1.60;;
8694;SDS011;65580;49.446;6.854;2023-06-01T08:21:13;3.85;;;1.65;;
8694;SDS011;65580;49.446;6.854;2023-06-01T08:25:16;6.22;;;1.48;;
8694;SDS011;65580;49.446;6.854;2023-06-01T08:29:19;8.10;;;1.80;;
8694;SDS011;65580;49.446;6.854;2023-06-01T08:33:43;7.78;;;1.70;;
8694;SDS011;65580;49.446;6.854;2023-06-01T08:37:46;5.80;;;1.88;;
8694;SDS011;65580;49.446;6.854;2023-06-01T08:41:54;4.80;;;1.65;;
8694;SDS011;65580;49.446;6.854;2023-06-01T08:46:03;2.80;;;1.52;;
8694;SDS011;65580;49.446;6.854;2023-06-01T08:50:09;5.35;;;1.63;;
8694;SDS011;65580;49.446;6.854;2023-06-01T08:54:12;2.58;;;1.65;;
8694;SDS011;65580;49.446;6.854;2023-06-01T08:58:16;3.90;;;1.70;;
8694;SDS011;65580;49.446;6.854;2023-06-01T09:02:19;5.57;;;1.60;;
8694;SDS011;65580;49.446;6.854;2023-06-01T09:06:23;3.88;;;1.60;;
8694;SDS011;65580;49.446;6.854;2023-06-01T09:10:27;4.47;;;1.80;;
8694;SDS011;65580;49.446;6.854;2023-06-01T09:14:30;4.47;;;1.60;;
8694;SDS011;65580;49.446;6.854;2023-06-01T09:18:34;4.65;;;1.65;;
8694;SDS011;65580;49.446;6.854;2023-06-01T09:22:40;4.63;;;1.70;;
8694;SDS011;65580;49.446;6.854;2023-06-01T09:26:47;5.95;;;1.60;;
8694;SDS011;65580;49.446;6.854;2023-06-01T09:30:50;5.60;;;1.60;;
8694;SDS011;65580;49.446;6.854;2023-06-01T09:34:53;8.98;;;1.90;;
8694;SDS011;65580;49.446;6.854;2023-06-01T09:39:01;6.72;;;1.60;;
8694;SDS011;65580;49.446;6.854;2023-06-01T09:43:20;3.42;;;1.50;;
8694;SDS011;65580;49.446;6.854;2023-06-01T09:47:24;3.28;;;1.40;;
8694;SDS011;65580;49.446;6.854;2023-06-01T09:51:31;5.43;;;1.63;;
8694;SDS011;65580;49.446;6.854;2023-06-01T09:55:35;5.03;;;1.80;;
8694;SDS011;65580;49.446;6.854;2023-06-01T09:59:39;3.47;;;1.55;;
8694;SDS011;65580;49.446;6.854;2023-06-01T10:03:44;4.03;;;1.45;;
8694;SDS011;65580;49.446;6.854;2023-06-01T10:07:47;3.95;;;1.80;;
8694;SDS011;65580;49.446;6.854;2023-06-01T10:11:52;4.45;;;1.77;;
8694;SDS011;65580;49.446;6.854;2023-06-01T10:15:56;7.88;;;1.90;;
8694;SDS011;65580;49.446;6.854;2023-06-01T10:19:59;3.42;;;1.45;;
8694;SDS011;65580;49.446;6.854;2023-06-01T10:24:04;4.28;;;1.42;;
8694;SDS011;65580;49.446;6.854;2023-06-01T10:28:10;5.80;;;1.75;;
8694;SDS011;65580;49.446;6.854;2023-06-01T10:41:27;3.38;;;1.50;;
8694;SDS011;65580;49.446;6.854;2023-06-01T10:45:44;5.05;;;1.60;;
8694;SDS011;65580;49.446;6.854;2023-06-01T10:54:27;3.08;;;1.42;;
8694;SDS011;65580;49.446;6.854;2023-06-01T10:58:32;3.55;;;1.40;;
8694;SDS011;65580;49.446;6.854;2023-06-01T11:02:37;3.88;;;1.45;;
8694;SDS011;65580;49.446;6.854;2023-06-01T11:06:45;6.18;;;1.70;;
8694;SDS011;65580;49.446;6.854;2023-06-01T11:10:57;2.50;;;1.60;;
8694;SDS011;65580;49.446;6.854;2023-06-01T11:15:08;2.65;;;1.55;;
8694;SDS011;65580;49.446;6.854;2023-06-01T11:19:17;2.17;;;1.45;;
8694;SDS011;65580;49.446;6.854;2023-06-01T11:23:23;4.68;;;1.63;;
8694;SDS011;65580;49.446;6.854;2023-06-01T11:27:27;6.15;;;1.60;;
8694;SDS011;65580;49.446;6.854;2023-06-01T11:31:33;5.28;;;1.67;;
8694;SDS011;65580;49.446;6.854;2023-06-01T11:35:39;3.85;;;1.60;;
8694;SDS011;65580;49.446;6.854;2023-06-01T11:39:42;2.30;;;1.40;;
8694;SDS011;65580;49.446;6.854;2023-06-01T11:43:52;3.65;;;1.63;;
8694;SDS011;65580;49.446;6.854;2023-06-01T11:47:56;3.22;;;1.70;;
8694;SDS011;65580;49.446;6.854;2023-06-01T11:52:00;3.00;;;1.67;;
8694;SDS011;65580;49.446;6.854;2023-06-01T11:56:03;2.92;;;1.70;;
8694;SDS011;65580;49.446;6.854;2023-06-01T12:00:09;2.78;;;1.52;;
8694;SDS011;65580;49.446;6.854;2023-06-01T12:04:15;3.53;;;1.58;;
8694;SDS011;65580;49.446;6.854;2023-06-01T12:08:21;2.78;;;1.52;;
8694;SDS011;65580;49.446;6.854;2023-06-01T12:12:25;4.00;;;1.70;;
8694;SDS011;65580;49.446;6.854;2023-06-01T12:20:54;5.28;;;1.80;;
8694;SDS011;65580;49.446;6.854;2023-06-01T12:24:59;4.78;;;1.80;;
8694;SDS011;65580;49.446;6.854;2023-06-01T12:29:09;5.30;;;1.70;;
8694;SDS011;65580;49.446;6.854;2023-06-01T12:33:31;2.47;;;1.55;;
8694;SDS011;65580;49.446;6.854;2023-06-01T12:37:35;5.18;;;1.85;;
8694;SDS011;65580;49.446;6.854;2023-06-01T12:41:48;2.97;;;1.58;;
8694;SDS011;65580;49.446;6.854;2023-06-01T12:45:52;6.10;;;1.77;;
8694;SDS011;65580;49.446;6.854;2023-06-01T12:50:01;2.58;;;1.67;;
8694;SDS011;65580;49.446;6.854;2023-06-01T12:54:05;2.80;;;1.60;;
8694;SDS011;65580;49.446;6.854;2023-06-01T12:58:10;3.63;;;1.50;;
8694;SDS011;65580;49.446;6.854;2023-06-01T13:02:13;4.63;;;1.50;;
8694;SDS011;65580;49.446;6.854;2023-06-01T13:06:17;2.78;;;1.40;;
8694;SDS011;65580;49.446;6.854;2023-06-01T13:10:20;3.53;;;1.52;;
8694;SDS011;65580;49.446;6.854;2023-06-01T13:14:25;4.15;;;1.40;;
8694;SDS011;65580;49.446;6.854;2023-06-01T13:18:28;5.13;;;1.80;;
8694;SDS011;65580;49.446;6.854;2023-06-01T13:22:32;3.83;;;1.52;;
8694;SDS011;65580;49.446;6.854;2023-06-01T13:26:34;5.35;;;1.60;;
8694;SDS011;65580;49.446;6.854;2023-06-01T13:30:39;5.47;;;1.45;;
8694;SDS011;65580;49.446;6.854;2023-06-01T13:34:42;3.88;;;1.67;;
8694;SDS011;65580;49.446;6.854;2023-06-01T13:38:45;5.68;;;1.50;;
8694;SDS011;65580;49.446;6.854;2023-06-01T13:42:48;5.07;;;1.70;;
8694;SDS011;65580;49.446;6.854;2023-06-01T13:46:53;1.65;;;1.40;;
8694;SDS011;65580;49.446;6.854;2023-06-01T13:50:56;2.47;;;1.50;;
8694;SDS011;65580;49.446;6.854;2023-06-01T13:54:59;3.10;;;1.60;;
8694;SDS011;65580;49.446;6.854;2023-06-01T13:59:02;4.88;;;1.90;;
8694;SDS011;65580;49.446;6.854;2023-06-01T14:03:07;2.38;;;1.60;;
8694;SDS011;65580;49.446;6.854;2023-06-01T14:07:10;3.67;;;1.83;;
8694;SDS011;65580;49.446;6.854;2023-06-01T14:11:13;3.67;;;1.70;;
8694;SDS011;65580;49.446;6.854;2023-06-01T14:15:17;3.50;;;1.63;;
8694;SDS011;65580;49.446;6.854;2023-06-01T14:19:21;4.82;;;1.80;;
8694;SDS011;65580;49.446;6.854;2023-06-01T14:23:26;4.35;;;1.70;;
8694;SDS011;65580;49.446;6.854;2023-06-01T14:27:30;1.70;;;1.50;;
8694;SDS011;65580;49.446;6.854;2023-06-01T14:31:33;2.20;;;1.42;;
8694;SDS011;65580;49.446;6.854;2023-06-01T14:35:38;5.70;;;1.60;;
8694;SDS011;65580;49.446;6.854;2023-06-01T14:39:40;3.65;;;1.55;;
8694;SDS011;65580;49.446;6.854;2023-06-01T14:43:43;4.97;;;1.70;;
8694;SDS011;65580;49.446;6.854;2023-06-01T14:47:46;5.13;;;1.65;;
8694;SDS011;65580;49.446;6.854;2023-06-01T14:51:51;3.60;;;1.60;;
8694;SDS011;65580;49.446;6.854;2023-06-01T14:55:54;3.25;;;1.63;;
8694;SDS011;65580;49.446;6.854;2023-06-01T14:59:57;5.63;;;1.85;;
8694;SDS011;65580;49.446;6.854;2023-06-01T15:08:09;6.03;;;1.90;;
8694;SDS011;65580;49.446;6.854;2023-06-01T15:12:12;6.85;;;1.80;;
8694;SDS011;65580;49.446;6.854;2023-06-01T15:16:15;3.92;;;1.70;;
8694;SDS011;65580;49.446;6.854;2023-06-01T15:20:19;6.75;;;1.70;;
8694;SDS011;65580;49.446;6.854;2023-06-01T15:24:23;4.75;;;1.52;;
8694;SDS011;65580;49.446;6.854;2023-06-01T15:28:26;3.92;;;1.50;;
8694;SDS011;65580;49.446;6.854;2023-06-01T15:32:29;5.38;;;1.70;;
8694;SDS011;65580;49.446;6.854;2023-06-01T15:36:32;5.25;;;1.90;;
8694;SDS011;65580;49.446;6.854;2023-06-01T15:40:36;5.28;;;1.50;;
8694;SDS011;65580;49.446;6.854;2023-06-01T15:44:39;7.63;;;1.90;;
8694;SDS011;65580;49.446;6.854;2023-06-01T15:48:43;5.40;;;1.77;;
8694;SDS011;65580;49.446;6.854;2023-06-01T15:52:45;6.10;;;1.63;;
8694;SDS011;65580;49.446;6.854;2023-06-01T15:56:50;3.10;;;1.70;;
8694;SDS011;65580;49.446;6.854;2023-06-01T16:00:53;3.58;;;1.70;;
8694;SDS011;65580;49.446;6.854;2023-06-01T16:05:07;2.67;;;1.60;;
8694;SDS011;65580;49.446;6.854;2023-06-01T16:09:10;5.20;;;1.55;;
8694;SDS011;65580;49.446;6.854;2023-06-01T16:13:14;3.70;;;1.60;;
8694;SDS011;65580;49.446;6.854;2023-06-01T16:17:28;4.03;;;1.73;;
8694;SDS011;65580;49.446;6.854;2023-06-01T16:21:31;5.10;;;2.13;;
8694;SDS011;65580;49.446;6.854;2023-06-01T16:25:34;4.75;;;1.90;;
8694;SDS011;65580;49.446;6.854;2023-06-01T16:29:39;4.38;;;1.67;;
8694;SDS011;65580;49.446;6.854;2023-06-01T16:33:42;4.57;;;2.08;;
8694;SDS011;65580;49.446;6.854;2023-06-01T16:37:45;7.00;;;2.30;;
8694;SDS011;65580;49.446;6.854;2023-06-01T16:41:48;6.00;;;2.50;;
8694;SDS011;65580;49.446;6.854;2023-06-01T16:45:53;4.28;;;2.45;;
8694;SDS011;65580;49.446;6.854;2023-06-01T16:49:56;5.53;;;2.95;;
8694;SDS011;65580;49.446;6.854;2023-06-01T16:54:00;6.22;;;2.92;;
8694;SDS011;65580;49.446;6.854;2023-06-01T16:58:03;6.85;;;3.30;;
8694;SDS011;65580;49.446;6.854;2023-06-01T17:02:08;6.72;;;3.10;;
8694;SDS011;65580;49.446;6.854;2023-06-01T17:06:11;9.45;;;3.28;;
8694;SDS011;65580;49.446;6.854;2023-06-01T17:10:14;7.38;;;3.13;;
8694;SDS011;65580;49.446;6.854;2023-06-01T17:14:17;8.88;;;3.92;;
8694;SDS011;65580;49.446;6.854;2023-06-01T17:18:22;9.65;;;3.90;;
8694;SDS011;65580;49.446;6.854;2023-06-01T17:22:25;10.23;;;5.03;;
8694;SDS011;65580;49.446;6.854;2023-06-01T17:26:28;10.27;;;5.55;;
8694;SDS011;65580;49.446;6.854;2023-06-01T17:30:31;11.02;;;6.25;;
8694;SDS011;65580;49.446;6.854;2023-06-01T17:34:35;11.15;;;6.47;;
8694;SDS011;65580;49.446;6.854;2023-06-01T17:38:38;11.82;;;7.40;;
8694;SDS011;65580;49.446;6.854;2023-06-01T17:42:41;15.55;;;8.02;;
8694;SDS011;65580;49.446;6.854;2023-06-01T17:46:44;13.80;;;7.65;;
8694;SDS011;65580;49.446;6.854;2023-06-01T17:50:48;15.27;;;7.47;;
8694;SDS011;65580;49.446;6.854;2023-06-01T17:54:54;13.10;;;7.15;;
8694;SDS011;65580;49.446;6.854;2023-06-01T17:58:57;15.68;;;7.50;;
8694;SDS011;65580;49.446;6.854;2023-06-01T18:03:00;22.23;;;7.75;;
8694;SDS011;65580;49.446;6.854;2023-06-01T18:07:06;14.20;;;7.57;;
8694;SDS011;65580;49.446;6.854;2023-06-01T18:11:09;13.60;;;7.70;;
8694;SDS011;65580;49.446;6.854;2023-06-01T18:15:13;14.05;;;7.53;;
8694;SDS011;65580;49.446;6.854;2023-06-01T18:23:20;16.77;;;7.32;;
8694;SDS011;65580;49.446;6.854;2023-06-01T18:27:23;14.07;;;7.88;;
8694;SDS011;65580;49.446;6.854;2023-06-01T18:31:26;15.30;;;7.55;;
8694;SDS011;65580;49.446;6.854;2023-06-01T18:35:29;13.23;;;7.32;;
8694;SDS011;65580;49.446;6.854;2023-06-01T18:39:37;13.48;;;6.70;;
8694;SDS011;65580;49.446;6.854;2023-06-01T18:43:40;13.52;;;7.20;;
8694;SDS011;65580;49.446;6.854;2023-06-01T18:47:43;11.63;;;6.97;;
8694;SDS011;65580;49.446;6.854;2023-06-01T18:51:48;16.33;;;7.28;;
8694;SDS011;65580;49.446;6.854;2023-06-01T18:55:56;12.10;;;7.40;;
8694;SDS011;65580;49.446;6.854;2023-06-01T18:59:59;14.90;;;7.55;;
8694;SDS011;65580;49.446;6.854;2023-06-01T19:04:02;11.70;;;6.45;;
8694;SDS011;65580;49.446;6.854;2023-06-01T19:08:06;13.63;;;7.28;;
8694;SDS011;65580;49.446;6.854;2023-06-01T19:12:12;16.67;;;8.45;;
8694;SDS011;65580;49.446;6.854;2023-06-01T19:16:16;15.52;;;7.82;;
8694;SDS011;65580;49.446;6.854;2023-06-01T19:20:54;15.52;;;8.10;;
8694;SDS011;65580;49.446;6.854;2023-06-01T19:25:11;16.83;;;7.68;;
8694;SDS011;65580;49.446;6.854;2023-06-01T19:29:16;16.15;;;7.50;;
8694;SDS011;65580;49.446;6.854;2023-06-01T19:33:19;16.05;;;8.05;;
8694;SDS011;65580;49.446;6.854;2023-06-01T19:37:21;12.10;;;6.32;;
8694;SDS011;65580;49.446;6.854;2023-06-01T19:41:25;13.80;;;5.85;;
8694;SDS011;65580;49.446;6.854;2023-06-01T19:49:39;12.15;;;5.70;;
8694;SDS011;65580;49.446;6.854;2023-06-01T19:53:42;12.75;;;5.55;;
8694;SDS011;65580;49.446;6.854;2023-06-01T19:57:46;10.98;;;4.93;;
8694;SDS011;65580;49.446;6.854;2023-06-01T20:01:51;10.35;;;4.55;;
8694;SDS011;65580;49.446;6.854;2023-06-01T20:05:55;10.23;;;4.93;;
8694;SDS011;65580;49.446;6.854;2023-06-01T20:09:58;9.60;;;4.25;;
8694;SDS011;65580;49.446;6.854;2023-06-01T20:14:01;10.95;;;4.38;;
8694;SDS011;65580;49.446;6.854;2023-06-01T20:18:06;10.27;;;4.15;;
8694;SDS011;65580;49.446;6.854;2023-06-01T20:22:10;15.68;;;4.18;;
8694;SDS011;65580;49.446;6.854;2023-06-01T20:26:14;12.23;;;4.20;;
8694;SDS011;65580;49.446;6.854;2023-06-01T20:34:36;10.05;;;3.72;;
8694;SDS011;65580;49.446;6.854;2023-06-01T20:38:39;11.73;;;4.28;;
8694;SDS011;65580;49.446;6.854;2023-06-01T20:42:45;11.88;;;4.20;;
8694;SDS011;65580;49.446;6.854;2023-06-01T20:46:48;10.10;;;4.43;;
8694;SDS011;65580;49.446;6.854;2023-06-01T20:50:55;7.90;;;3.85;;
8694;SDS011;65580;49.446;6.854;2023-06-01T20:55:02;7.55;;;3.85;;
8694;SDS011;65580;49.446;6.854;2023-06-01T20:59:07;16.10;;;4.55;;
8694;SDS011;65580;49.446;6.854;2023-06-01T21:03:11;9.52;;;3.97;;
8694;SDS011;65580;49.446;6.854;2023-06-01T21:07:16;6.82;;;3.55;;
8694;SDS011;65580;49.446;6.854;2023-06-01T21:11:18;11.52;;;4.13;;
8694;SDS011;65580;49.446;6.854;2023-06-01T21:19:25;8.50;;;3.97;;
8694;SDS011;65580;49.446;6.854;2023-06-01T21:23:29;12.10;;;4.43;;
8694;SDS011;65580;49.446;6.854;2023-06-01T21:27:32;10.50;;;4.32;;
8694;SDS011;65580;49.446;6.854;2023-06-01T21:31:35;10.50;;;4.38;;
8694;SDS011;65580;49.446;6.854;2023-06-01T21:35:39;12.07;;;4.40;;
8694;SDS011;65580;49.446;6.854;2023-06-01T21:43:47;11.40;;;4.38;;
8694;SDS011;65580;49.446;6.854;2023-06-01T21:47:50;12.52;;;4.50;;
8694;SDS011;65580;49.446;6.854;2023-06-01T21:51:53;9.20;;;4.47;;
8694;SDS011;65580;49.446;6.854;2023-06-01T21:55:58;14.10;;;4.18;;
8694;SDS011;65580;49.446;6.854;2023-06-01T22:00:01;11.90;;;4.88;;
8694;SDS011;65580;49.446;6.854;2023-06-01T22:04:06;11.02;;;4.55;;
8694;SDS011;65580;49.446;6.854;2023-06-01T22:08:12;12.88;;;4.80;;
8694;SDS011;65580;49.446;6.854;2023-06-01T22:12:17;9.35;;;4.22;;
8694;SDS011;65580;49.446;6.854;2023-06-01T22:16:20;10.23;;;5.03;;
8694;SDS011;65580;49.446;6.854;2023-06-01T22:20:23;10.00;;;4.32;;
8694;SDS011;65580;49.446;6.854;2023-06-01T22:24:27;9.50;;;4.28;;
8694;SDS011;65580;49.446;6.854;2023-06-01T22:28:32;9.38;;;4.28;;
8694;SDS011;65580;49.446;6.854;2023-06-01T22:32:35;11.90;;;5.88;;
8694;SDS011;65580;49.446;6.854;2023-06-01T22:40:42;12.93;;;5.10;;
8694;SDS011;65580;49.446;6.854;2023-06-01T22:44:47;11.68;;;5.18;;
8694;SDS011;65580;49.446;6.854;2023-06-01T22:48:50;10.20;;;4.57;;
8694;SDS011;65580;49.446;6.854;2023-06-01T22:52:52;11.00;;;4.90;;
8694;SDS011;65580;49.446;6.854;2023-06-01T22:56:56;10.77;;;4.70;;
8694;SDS011;65580;49.446;6.854;2023-06-01T23:01:00;11.45;;;5.00;;
8694;SDS011;65580;49.446;6.854;2023-06-01T23:05:05;10.43;;;4.47;;
8694;SDS011;65580;49.446;6.854;2023-06-01T23:09:08;12.93;;;5.90;;
8694;SDS011;65580;49.446;6.854;2023-06-01T23:13:11;8.30;;;4.88;;
8694;SDS011;65580;49.446;6.854;2023-06-01T23:17:17;8.55;;;4.43;;
8694;SDS011;65580;49.446;6.854;2023-06-01T23:25:29;13.30;;;5.10;;
8694;SDS011;65580;49.446;6.854;2023-06-01T23:29:32;11.63;;;4.82;;
8694;SDS011;65580;49.446;6.854;2023-06-01T23:33:37;9.05;;;4.78;;
8694;SDS011;65580;49.446;6.854;2023-06-01T23:37:40;10.40;;;4.90;;
8694;SDS011;65580;49.446;6.854;2023-06-01T23:41:46;11.25;;;5.05;;
8694;SDS011;65580;49.446;6.854;2023-06-01T23:45:49;7.65;;;4.90;;
8694;SDS011;65580;49.446;6.854;2023-06-01T23:49:53;13.45;;;5.30;;
8694;SDS011;65580;49.446;6.854;2023-06-01T23:53:56;11.80;;;4.80;;
8694;SDS011;65580;49.446;6.854;2023-06-01T23:57:59;18.35;;;6.47;;
